createdAt,value
2019-05-30T00:01:54.242Z,101801.73
2019-05-30T00:04:27.228Z,101799.59
2019-05-30T00:06:58.660Z,101788.41
2019-05-30T00:09:29.348Z,101800.89
2019-05-30T00:12:00.759Z,101798.31
2019-05-30T00:14:31.483Z,101803.06
2019-05-30T00:17:04.990Z,101801.67
2019-05-30T00:19:35.745Z,101798.39
2019-05-30T00:22:06.139Z,101795.89
2019-05-30T00:24:36.707Z,101796.37
2019-05-30T00:27:07.319Z,101802.30
2019-05-30T00:29:37.952Z,101791.18
2019-05-30T00:32:08.506Z,101791.18
2019-05-30T00:34:38.819Z,101798.77
2019-05-30T00:37:09.236Z,101801.55
2019-05-30T00:39:41.174Z,101798.27
2019-05-30T00:42:11.553Z,101806.40
2019-05-30T00:44:42.377Z,101805.83
2019-05-30T00:47:12.879Z,101803.52
2019-05-30T00:49:43.179Z,101796.77
2019-05-30T00:52:14.886Z,101798.97
2019-05-30T00:54:45.180Z,101801.95
2019-05-30T00:57:15.766Z,101798.20
2019-05-30T00:59:46.088Z,101798.30
2019-05-30T01:02:16.438Z,101793.41
2019-05-30T01:04:47.004Z,101790.10
2019-05-30T01:07:17.327Z,101795.03
2019-05-30T01:09:47.640Z,101793.53
2019-05-30T01:12:17.886Z,101791.80
2019-05-30T01:14:48.588Z,101795.87
2019-05-30T01:17:18.952Z,101795.87
2019-05-30T01:19:50.230Z,101799.84
2019-05-30T01:22:20.820Z,101795.14
2019-05-30T01:24:51.782Z,101798.55
2019-05-30T01:27:22.628Z,101796.34
2019-05-30T01:29:53.213Z,101791.40
2019-05-30T01:32:29.745Z,101794.52
2019-05-30T01:35:01.966Z,101790.14
2019-05-30T01:37:34.021Z,101795.19
2019-05-30T01:40:06.359Z,101795.56
2019-05-30T01:42:37.110Z,101794.34
2019-05-30T01:45:08.653Z,101800.41
2019-05-30T01:47:39.338Z,101795.41
2019-05-30T01:50:12.480Z,101787.78
2019-05-30T01:52:44.527Z,101792.26
2019-05-30T01:55:17.325Z,101780.73
2019-05-30T01:57:47.898Z,101785.11
2019-05-30T02:00:21.448Z,101782.56
2019-05-30T02:02:53.489Z,101783.55
2019-05-30T02:05:24.119Z,101780.20
2019-05-30T02:07:54.368Z,101778.12
2019-05-30T02:10:26.105Z,101778.20
2019-05-30T02:12:56.373Z,101781.21
2019-05-30T02:15:29.692Z,101777.01
2019-05-30T02:18:01.472Z,101773.58
2019-05-30T02:20:33.035Z,101773.58
2019-05-30T02:23:05.699Z,101774.46
2019-05-30T02:25:35.862Z,101774.53
2019-05-30T02:28:06.377Z,101776.63
2019-05-30T02:30:37.195Z,101777.11
2019-05-30T02:33:09.773Z,101779.31
2019-05-30T02:35:40.861Z,101778.94
2019-05-30T02:38:11.928Z,101780.63
2019-05-30T02:40:42.617Z,101784.19
2019-05-30T02:43:12.948Z,101783.38
2019-05-30T02:45:43.430Z,101783.38
2019-05-30T02:48:14.867Z,101789.41
2019-05-30T02:50:45.412Z,101792.02
2019-05-30T02:53:15.716Z,101793.78
2019-05-30T02:55:46.315Z,101791.99
2019-05-30T02:58:16.630Z,101791.11
2019-05-30T03:00:47.524Z,101795.41
2019-05-30T03:03:18.222Z,101793.69
2019-05-30T03:05:49.128Z,101795.38
2019-05-30T03:08:19.895Z,101800.57
2019-05-30T03:10:51.871Z,101802.70
2019-05-30T03:13:24.472Z,101806.50
2019-05-30T03:15:54.760Z,101803.59
2019-05-30T03:18:27.637Z,101803.75
2019-05-30T03:20:57.914Z,101806.94
2019-05-30T03:23:29.599Z,101803.48
2019-05-30T03:25:59.939Z,101807.09
2019-05-30T03:28:30.235Z,101800.18
2019-05-30T03:31:09.185Z,101798.19
2019-05-30T03:33:42.418Z,101805.44
2019-05-30T03:36:26.441Z,101805.11
2019-05-30T03:38:44.576Z,101808.48
2019-05-30T03:41:15.299Z,101805.53
2019-05-30T03:43:45.882Z,101802.84
2019-05-30T03:46:20.908Z,101802.37
2019-05-30T03:48:55.920Z,101803.98
2019-05-30T03:51:28.186Z,101811.85
2019-05-30T03:54:02.284Z,101803.33
2019-05-30T03:56:41.649Z,101811.27
2019-05-30T03:59:28.467Z,101805.88
2019-05-30T04:02:56.205Z,101802.94
2019-05-30T04:05:19.195Z,101808.34
2019-05-30T04:07:52.814Z,101809.04
2019-05-30T04:10:25.273Z,101816.91
2019-05-30T04:13:31.931Z,101817.02
2019-05-30T04:16:02.475Z,101818.16
2019-05-30T04:18:36.568Z,101806.49
2019-05-30T04:21:08.562Z,101804.95
2019-05-30T04:23:40.251Z,101809.02
2019-05-30T04:26:11.501Z,101812.98
2019-05-30T04:28:41.946Z,101813.17
2019-05-30T04:31:12.568Z,101815.92
2019-05-30T04:33:44.743Z,101813.04
2019-05-30T04:36:16.852Z,101814.06
2019-05-30T04:38:47.638Z,101813.80
2019-05-30T04:41:19.135Z,101813.80
2019-05-30T04:43:50.326Z,101813.63
2019-05-30T04:46:21.894Z,101814.75
2019-05-30T04:48:53.016Z,101814.75
2019-05-30T04:51:23.288Z,101813.76
2019-05-30T04:53:55.265Z,101817.02
2019-05-30T04:56:26.081Z,101815.55
2019-05-30T04:58:57.762Z,101814.45
2019-05-30T05:01:28.082Z,101812.13
2019-05-30T05:03:58.690Z,101807.25
2019-05-30T05:06:29.284Z,101815.28
2019-05-30T05:09:00.587Z,101813.83
2019-05-30T05:11:32.217Z,101816.69
2019-05-30T05:14:02.949Z,101814.80
2019-05-30T05:16:36.065Z,101821.45
2019-05-30T05:19:07.134Z,101812.16
2019-05-30T05:21:37.719Z,101812.30
2019-05-30T05:24:08.294Z,101816.36
2019-05-30T05:26:39.008Z,101814.50
2019-05-30T05:29:09.305Z,101816.05
2019-05-30T05:31:43.257Z,101811.75
2019-05-30T05:34:15.130Z,101811.75
2019-05-30T05:36:45.445Z,101815.48
2019-05-30T05:39:16.173Z,101814.36
2019-05-30T05:41:46.684Z,101818.80
2019-05-30T05:44:18.279Z,101816.80
2019-05-30T05:46:48.901Z,101819.57
2019-05-30T05:49:20.591Z,101819.73
2019-05-30T05:51:51.001Z,101819.03
2019-05-30T05:54:22.996Z,101822.59
2019-05-30T05:56:53.437Z,101829.60
2019-05-30T05:59:25.221Z,101833.87
2019-05-30T06:01:56.696Z,101828.48
2019-05-30T06:04:37.363Z,101841.91
2019-05-30T06:07:08.045Z,101834.15
2019-05-30T06:10:17.653Z,101839.84
2019-05-30T06:17:26.903Z,101842.69
2019-05-30T06:20:17.495Z,101849.81
2019-05-30T06:31:31.217Z,101866.35
2019-05-30T06:35:11.068Z,101869.89
2019-05-30T06:38:12.951Z,101874.88
2019-05-30T06:46:07.215Z,101882.02
2019-05-30T06:50:05.239Z,101889.80
2019-05-30T07:13:27.249Z,101900.11
2019-05-30T07:16:03.130Z,101908.64
2019-05-30T07:18:04.338Z,101894.95
2019-05-30T07:18:36.640Z,101909.45
2019-05-30T07:21:06.985Z,101922.48
2019-05-30T07:23:39.599Z,101926.69
2019-05-30T07:26:10.458Z,101918.69
2019-05-30T07:28:41.107Z,101926.31
2019-05-30T07:32:08.252Z,101931.25
2019-05-30T07:47:11.826Z,101947.12
2019-05-30T07:54:11.959Z,101953.56
2019-05-30T08:15:36.992Z,101948.09
2019-05-30T08:18:17.955Z,101938.89
2019-05-30T08:22:17.473Z,101944.76
2019-05-30T08:27:22.809Z,101934.02
2019-05-30T08:29:09.911Z,101939.24
2019-05-30T08:46:55.740Z,101927.08
2019-05-30T09:00:22.191Z,101919.58
2019-05-30T09:02:52.757Z,101921.27
2019-05-30T09:05:24.160Z,101930.69
2019-05-30T09:07:54.881Z,101926.94
2019-05-30T09:10:25.660Z,101921.77
2019-05-30T09:12:55.967Z,101916.58
2019-05-30T09:15:26.372Z,101916.09
2019-05-30T09:17:56.902Z,101917.30
2019-05-30T09:20:30.687Z,101918.92
2019-05-30T09:23:01.997Z,101919.00
2019-05-30T09:25:32.862Z,101919.00
2019-05-30T09:28:03.363Z,101922.36
2019-05-30T09:30:33.662Z,101930.44
2019-05-30T09:33:05.596Z,101934.87
2019-05-30T09:35:36.008Z,101937.95
2019-05-30T09:38:07.436Z,101944.89
2019-05-30T09:40:39.323Z,101945.19
2019-05-30T09:43:10.314Z,101933.00
2019-05-30T09:45:42.296Z,101933.00
2019-05-30T09:48:13.919Z,101941.94
2019-05-30T09:50:45.205Z,101950.19
2019-05-30T09:53:16.072Z,101945.41
2019-05-30T09:55:46.404Z,101944.24
2019-05-30T09:58:18.341Z,101936.13
2019-05-30T10:00:50.324Z,101935.98
2019-05-30T10:03:21.836Z,101934.04
2019-05-30T10:05:52.721Z,101931.38
2019-05-30T10:08:24.189Z,101936.44
2019-05-30T10:10:54.785Z,101939.23
2019-05-30T10:13:25.382Z,101929.94
2019-05-30T10:15:56.714Z,101937.94
2019-05-30T10:18:27.566Z,101937.94
2019-05-30T10:20:58.177Z,101937.85
2019-05-30T10:23:28.776Z,101946.45
2019-05-30T10:25:59.462Z,101946.64
2019-05-30T10:28:30.032Z,101952.36
2019-05-30T10:31:00.366Z,101963.61
2019-05-30T10:33:31.077Z,101950.48
2019-05-30T10:38:44.053Z,101951.56
2019-05-30T10:41:14.715Z,101958.02
2019-05-30T10:43:46.413Z,101949.88
2019-05-30T10:46:25.806Z,101948.05
2019-05-30T10:48:56.871Z,101948.38
2019-05-30T10:51:27.621Z,101955.08
2019-05-30T10:53:58.218Z,101954.88
2019-05-30T10:56:28.893Z,101954.92
2019-05-30T10:58:59.763Z,101958.86
2019-05-30T11:01:30.193Z,101966.97
2019-05-30T11:04:00.803Z,101953.89
2019-05-30T11:07:10.972Z,101953.28
2019-05-30T11:09:38.662Z,101957.14
2019-05-30T11:12:09.535Z,101963.03
2019-05-30T11:14:40.312Z,101963.03
2019-05-30T11:17:10.941Z,101962.80
2019-05-30T11:19:41.576Z,101961.60
2019-05-30T11:22:12.141Z,101967.27
2019-05-30T11:24:42.640Z,101961.89
2019-05-30T11:27:13.528Z,101957.45
2019-05-30T11:29:44.097Z,101961.16
2019-05-30T11:32:14.822Z,101961.05
2019-05-30T11:34:46.652Z,101954.97
2019-05-30T11:37:18.646Z,101957.08
2019-05-30T11:39:51.085Z,101960.03
2019-05-30T11:42:21.799Z,101963.55
2019-05-30T11:44:53.394Z,101967.23
2019-05-30T11:47:24.351Z,101964.87
2019-05-30T11:49:56.376Z,101966.70
2019-05-30T11:52:26.961Z,101970.81
2019-05-30T11:54:58.102Z,101973.78
2019-05-30T12:00:07.112Z,101971.98
2019-05-30T12:02:37.725Z,101978.34
2019-05-30T12:05:10.758Z,101979.60
2019-05-30T12:07:41.414Z,101975.74
2019-05-30T12:10:16.682Z,101985.34
2019-05-30T12:12:47.748Z,101982.75
2019-05-30T12:15:20.224Z,101978.89
2019-05-30T12:17:51.172Z,101978.20
2019-05-30T12:20:23.043Z,101978.20
2019-05-30T12:22:53.833Z,101982.05
2019-05-30T12:25:28.010Z,101978.94
2019-05-30T12:27:58.733Z,101989.67
2019-05-30T12:30:29.762Z,101993.09
2019-05-30T12:33:00.451Z,101993.09
2019-05-30T12:35:31.114Z,101989.57
2019-05-30T12:38:05.988Z,102000.39
2019-05-30T12:40:34.197Z,101996.86
2019-05-30T12:43:05.081Z,101998.52
2019-05-30T12:45:35.817Z,102000.86
2019-05-30T12:48:06.213Z,101999.64
2019-05-30T12:50:37.772Z,101998.34
2019-05-30T12:53:11.091Z,102005.35
2019-05-30T12:55:40.733Z,102000.07
2019-05-30T12:58:11.567Z,102007.12
2019-05-30T13:00:42.961Z,102003.67
2019-05-30T13:03:13.607Z,102001.84
2019-05-30T13:05:44.322Z,102009.13
2019-05-30T13:08:21.638Z,102010.78
2019-05-30T13:10:48.331Z,102007.25
2019-05-30T13:13:18.968Z,102006.33
2019-05-30T13:15:57.143Z,102011.16
2019-05-30T13:18:30.512Z,102012.95
2019-05-30T13:21:02.158Z,102012.59
2019-05-30T13:23:40.713Z,102015.62
2019-05-30T13:26:14.216Z,102009.67
2019-05-30T13:28:48.969Z,102014.49
2019-05-30T13:31:20.571Z,102009.77
2019-05-30T13:33:51.203Z,102006.04
2019-05-30T13:36:22.093Z,102001.39
2019-05-30T13:38:52.493Z,101999.75
2019-05-30T13:41:23.194Z,102003.51
2019-05-30T13:43:55.241Z,102008.09
2019-05-30T13:46:27.501Z,102007.35
2019-05-30T13:48:58.465Z,102015.62
2019-05-30T13:51:31.833Z,102008.23
2019-05-30T13:54:03.697Z,102006.02
2019-05-30T13:56:36.803Z,102004.39
2019-05-30T13:59:08.598Z,102004.39
2019-05-30T14:01:39.155Z,102008.45
2019-05-30T14:04:10.474Z,101997.68
2019-05-30T14:06:41.173Z,102000.94
2019-05-30T14:09:11.713Z,101998.55
2019-05-30T14:11:42.377Z,102000.92
2019-05-30T14:14:13.077Z,101998.97
2019-05-30T14:16:43.703Z,101995.16
2019-05-30T14:19:15.063Z,101996.56
2019-05-30T14:21:45.808Z,101993.55
2019-05-30T14:24:17.249Z,101987.84
2019-05-30T14:26:47.879Z,101976.94
2019-05-30T14:29:19.752Z,101994.41
2019-05-30T14:31:50.428Z,101991.79
2019-05-30T14:34:21.570Z,101994.81
2019-05-30T14:36:52.485Z,101989.63
2019-05-30T14:39:23.396Z,101989.63
2019-05-30T14:41:54.119Z,101982.22
2019-05-30T14:44:25.884Z,101989.15
2019-05-30T14:46:56.321Z,101989.13
2019-05-30T14:49:26.910Z,101982.14
2019-05-30T14:51:57.601Z,101985.23
2019-05-30T14:54:28.228Z,101987.00
2019-05-30T14:56:58.763Z,101988.74
2019-05-30T14:59:29.347Z,101990.92
2019-05-30T15:01:59.956Z,101990.50
2019-05-30T15:04:30.633Z,101988.73
2019-05-30T15:07:01.250Z,101989.19
2019-05-30T15:09:32.012Z,101984.81
2019-05-30T15:12:02.869Z,101985.25
2019-05-30T15:14:33.452Z,101987.38
2019-05-30T15:17:04.087Z,101989.09
2019-05-30T15:19:34.653Z,101990.41
2019-05-30T15:22:07.441Z,101987.44
2019-05-30T15:24:38.536Z,101990.93
2019-05-30T15:27:10.054Z,101979.13
2019-05-30T15:29:40.780Z,101979.61
2019-05-30T15:32:14.434Z,101974.80
2019-05-30T15:34:45.320Z,101978.29
2019-05-30T15:37:17.855Z,101970.39
2019-05-30T15:39:48.467Z,101972.16
2019-05-30T15:42:20.596Z,101976.09
2019-05-30T15:44:51.197Z,101978.27
2019-05-30T15:47:22.552Z,101983.09
2019-05-30T15:49:53.167Z,101975.66
2019-05-30T15:52:24.134Z,101974.37
2019-05-30T15:54:55.019Z,101968.70
2019-05-30T16:02:41.684Z,101969.57
2019-05-30T16:05:14.877Z,101972.20
2019-05-30T16:07:47.145Z,101968.71
2019-05-30T16:10:21.194Z,101969.13
2019-05-30T16:12:52.810Z,101964.33
2019-05-30T16:15:24.959Z,101970.42
2019-05-30T16:17:57.385Z,101971.33
2019-05-30T16:20:28.206Z,101968.70
2019-05-30T16:22:58.831Z,101969.59
2019-05-30T16:25:29.278Z,101960.88
2019-05-30T16:27:59.872Z,101959.93
2019-05-30T16:30:30.569Z,101959.88
2019-05-30T16:35:37.137Z,101958.45
2019-05-30T16:38:07.831Z,101956.70
2019-05-30T16:40:44.406Z,101955.34
2019-05-30T16:43:16.216Z,101955.72
2019-05-30T16:45:46.974Z,101956.58
2019-05-30T16:48:18.365Z,101956.61
2019-05-30T16:50:49.322Z,101957.12
2019-05-30T16:53:23.071Z,101949.41
2019-05-30T16:55:52.259Z,101949.41
2019-05-30T16:58:23.810Z,101946.86
2019-05-30T17:00:55.296Z,101936.47
2019-05-30T17:03:27.471Z,101936.47
2019-05-30T17:05:58.299Z,101940.42
2019-05-30T17:08:29.004Z,101940.41
2019-05-30T17:11:01.250Z,101938.23
2019-05-30T17:13:31.801Z,101935.63
2019-05-30T17:16:03.435Z,101932.14
2019-05-30T17:18:37.510Z,101937.35
2019-05-30T17:21:10.193Z,101936.49
2019-05-30T17:23:40.993Z,101938.66
2019-05-30T17:26:11.316Z,101945.21
2019-05-30T17:28:41.959Z,101941.69
2019-05-30T17:31:12.534Z,101945.15
2019-05-30T17:33:43.191Z,101946.45
2019-05-30T17:36:13.931Z,101946.43
2019-05-30T17:38:44.599Z,101949.02
2019-05-30T17:41:15.206Z,101952.50
2019-05-30T17:43:45.729Z,101954.63
2019-05-30T17:46:16.657Z,101953.73
2019-05-30T17:48:51.845Z,101955.91
2019-05-30T17:51:23.654Z,101948.47
2019-05-30T17:53:54.039Z,101957.11
2019-05-30T17:56:26.169Z,101956.61
2019-05-30T17:58:56.753Z,101953.95
2019-05-30T18:01:28.457Z,101961.30
2019-05-30T18:03:59.069Z,101958.67
2019-05-30T18:06:30.721Z,101954.34
2019-05-30T18:09:01.519Z,101950.41
2019-05-30T18:11:33.772Z,101951.70
2019-05-30T18:14:04.545Z,101948.18
2019-05-30T18:16:35.301Z,101960.33
2019-05-30T18:19:05.800Z,101961.64
2019-05-30T18:21:36.567Z,101963.34
2019-05-30T18:24:07.435Z,101962.02
2019-05-30T18:26:38.178Z,101960.25
2019-05-30T18:29:10.335Z,101961.51
2019-05-30T18:31:41.027Z,101960.16
2019-05-30T18:34:17.184Z,101967.50
2019-05-30T18:36:51.062Z,101960.05
2019-05-30T18:39:22.383Z,101961.78
2019-05-30T18:41:53.306Z,101965.24
2019-05-30T18:44:26.714Z,101967.36
2019-05-30T18:46:57.169Z,101974.27
2019-05-30T18:49:29.295Z,101962.97
2019-05-30T18:52:01.061Z,101969.06
2019-05-30T18:54:32.934Z,101976.39
2019-05-30T18:57:03.901Z,101978.14
2019-05-30T18:59:34.599Z,101972.97
2019-05-30T19:02:05.418Z,101977.33
2019-05-30T19:04:36.329Z,101976.45
2019-05-30T19:07:07.014Z,101980.75
2019-05-30T19:09:37.809Z,101981.57
2019-05-30T19:12:08.628Z,101983.27
2019-05-30T19:14:39.220Z,101978.84
2019-05-30T19:17:10.357Z,101990.11
2019-05-30T19:19:42.673Z,101992.22
2019-05-30T19:22:13.408Z,101990.44
2019-05-30T19:24:44.391Z,101995.15
2019-05-30T19:27:18.936Z,101996.37
2019-05-30T19:29:50.345Z,101997.22
2019-05-30T19:32:22.159Z,101999.79
2019-05-30T19:34:52.838Z,102000.21
2019-05-30T19:37:23.166Z,102008.44
2019-05-30T19:39:55.187Z,102011.42
2019-05-30T19:42:29.293Z,102015.25
2019-05-30T19:45:00.119Z,102027.80
2019-05-30T19:47:30.930Z,102027.38
2019-05-30T19:50:03.850Z,102029.98
2019-05-30T19:52:42.693Z,102027.77
2019-05-30T19:55:17.090Z,102031.62
2019-05-30T19:57:50.195Z,102032.92
2019-05-30T20:00:23.091Z,102031.96
2019-05-30T20:02:53.771Z,102035.41
2019-05-30T20:05:24.730Z,102037.55
2019-05-30T20:07:59.410Z,102035.36
2019-05-30T20:10:32.791Z,102037.05
2019-05-30T20:13:03.565Z,102042.30
2019-05-30T20:15:35.346Z,102040.57
2019-05-30T20:18:09.170Z,102044.89
2019-05-30T20:20:53.945Z,102047.50
2019-05-30T20:23:13.508Z,102055.30
2019-05-30T20:25:45.991Z,102051.85
2019-05-30T20:28:18.949Z,102049.67
2019-05-30T20:30:56.358Z,102053.16
2019-05-30T20:33:27.218Z,102042.75
2019-05-30T20:36:01.207Z,102046.16
2019-05-30T20:38:31.952Z,102058.23
2019-05-30T20:41:03.350Z,102050.84
2019-05-30T20:43:40.994Z,102062.12
2019-05-30T20:46:22.754Z,102062.12
2019-05-30T20:48:45.791Z,102059.95
2019-05-30T20:51:21.125Z,102061.24
2019-05-30T20:54:00.782Z,102068.58
2019-05-30T20:56:31.331Z,102068.58
2019-05-30T20:59:01.959Z,102069.00
2019-05-30T21:01:33.921Z,102070.72
2019-05-30T21:04:04.717Z,102072.02
2019-05-30T21:06:41.527Z,102068.13
2019-05-30T21:09:28.529Z,102075.92
2019-05-30T21:11:52.814Z,102078.52
2019-05-30T21:14:27.814Z,102079.36
2019-05-30T21:17:00.676Z,102076.34
2019-05-30T21:19:31.681Z,102082.42
2019-05-30T21:22:04.449Z,102084.98
2019-05-30T21:24:36.435Z,102085.85
2019-05-30T21:27:06.890Z,102084.52
2019-05-30T21:29:41.110Z,102078.84
2019-05-30T21:32:12.920Z,102084.42
2019-05-30T21:34:44.536Z,102084.83
2019-05-30T21:37:15.771Z,102091.75
2019-05-30T21:39:46.349Z,102089.14
2019-05-30T21:42:17.823Z,102088.27
2019-05-30T21:44:51.491Z,102096.48
2019-05-30T21:47:20.874Z,102083.89
2019-05-30T21:49:52.173Z,102093.83
2019-05-30T21:52:22.915Z,102092.08
2019-05-30T21:54:53.530Z,102087.75
2019-05-30T21:57:24.183Z,102099.03
2019-05-30T21:59:54.802Z,102096.84
2019-05-30T22:02:25.081Z,102095.50
2019-05-30T22:04:55.652Z,102098.09
2019-05-30T22:07:26.240Z,102090.25
2019-05-30T22:09:56.855Z,102090.25
2019-05-30T22:12:27.237Z,102087.65
2019-05-30T22:14:57.815Z,102086.30
2019-05-30T22:17:30.113Z,102086.30
2019-05-30T22:20:00.461Z,102078.91
2019-05-30T22:22:32.880Z,102088.39
2019-05-30T22:25:05.017Z,102084.02
2019-05-30T22:27:36.647Z,102091.81
2019-05-30T22:30:08.283Z,102092.22
2019-05-30T22:32:38.891Z,102092.22
2019-05-30T22:35:09.485Z,102092.59
2019-05-30T22:37:40.109Z,102098.61
2019-05-30T22:40:10.820Z,102098.61
2019-05-30T22:42:41.499Z,102100.70
2019-05-30T22:45:11.969Z,102100.70
2019-05-30T22:47:42.610Z,102099.81
2019-05-30T22:50:12.941Z,102097.20
2019-05-30T22:52:44.711Z,102095.44
2019-05-30T22:55:15.201Z,102094.97
2019-05-30T22:57:46.437Z,102091.06
2019-05-30T23:00:17.552Z,102094.04
2019-05-30T23:02:48.184Z,102100.95
2019-05-30T23:05:20.588Z,102100.53
2019-05-30T23:07:51.481Z,102097.45
2019-05-30T23:10:23.349Z,102100.00
2019-05-30T23:12:56.752Z,102099.13
2019-05-30T23:15:27.802Z,102100.00
2019-05-30T23:17:58.679Z,102095.58
2019-05-30T23:20:29.592Z,102094.70
2019-05-30T23:23:00.242Z,102096.45
2019-05-30T23:25:32.247Z,102091.67
2019-05-30T23:28:02.860Z,102093.31
2019-05-30T23:30:34.662Z,102091.13
2019-05-30T23:33:05.577Z,102090.24
2019-05-30T23:35:36.414Z,102098.02
2019-05-30T23:38:07.009Z,102095.01
2019-05-30T23:40:37.588Z,102092.83
2019-05-30T23:43:08.099Z,102090.64
2019-05-30T23:45:38.698Z,102092.36
2019-05-30T23:48:09.004Z,102089.30
2019-05-30T23:50:39.740Z,102090.58
2019-05-30T23:53:10.016Z,102083.21
2019-05-30T23:55:41.245Z,102086.22
2019-05-30T23:58:11.892Z,102083.16
